sensor_id;sensor_type;location;lat;lon;timestamp;P1;durP1;ratioP1;P2;durP2;ratioP2
6388;SDS011;3227;42.654;23.360;2022-08-21T00:00:42;15.52;;;10.50;;
6388;SDS011;3227;42.654;23.360;2022-08-21T00:03:10;21.13;;;10.52;;
6388;SDS011;3227;42.654;23.360;2022-08-21T00:05:45;15.43;;;9.80;;
6388;SDS011;3227;42.654;23.360;2022-08-21T00:08:17;14.65;;;8.88;;
6388;SDS011;3227;42.654;23.360;2022-08-21T00:10:44;16.83;;;9.38;;
6388;SDS011;3227;42.654;23.360;2022-08-21T00:13:11;15.60;;;8.73;;
6388;SDS011;3227;42.654;23.360;2022-08-21T00:18:25;16.00;;;9.35;;
6388;SDS011;3227;42.654;23.360;2022-08-21T00:20:53;15.95;;;8.70;;
6388;SDS011;3227;42.654;23.360;2022-08-21T00:23:20;13.70;;;9.10;;
6388;SDS011;3227;42.654;23.360;2022-08-21T00:25:47;17.00;;;10.20;;
6388;SDS011;3227;42.654;23.360;2022-08-21T00:28:14;16.70;;;10.07;;
6388;SDS011;3227;42.654;23.360;2022-08-21T00:30:42;15.75;;;9.68;;
6388;SDS011;3227;42.654;23.360;2022-08-21T00:33:09;14.18;;;8.75;;
6388;SDS011;3227;42.654;23.360;2022-08-21T00:35:39;14.45;;;8.60;;
6388;SDS011;3227;42.654;23.360;2022-08-21T00:38:09;13.75;;;8.52;;
6388;SDS011;3227;42.654;23.360;2022-08-21T00:40:37;14.07;;;8.93;;
6388;SDS011;3227;42.654;23.360;2022-08-21T00:43:06;14.13;;;8.05;;
6388;SDS011;3227;42.654;23.360;2022-08-21T00:45:35;13.52;;;6.85;;
6388;SDS011;3227;42.654;23.360;2022-08-21T00:48:02;13.13;;;6.40;;
6388;SDS011;3227;42.654;23.360;2022-08-21T00:50:31;10.23;;;5.57;;
6388;SDS011;3227;42.654;23.360;2022-08-21T00:52:59;11.90;;;5.88;;
6388;SDS011;3227;42.654;23.360;2022-08-21T00:55:29;9.93;;;6.43;;
6388;SDS011;3227;42.654;23.360;2022-08-21T00:57:58;13.45;;;6.38;;
6388;SDS011;3227;42.654;23.360;2022-08-21T01:00:27;14.68;;;7.05;;
6388;SDS011;3227;42.654;23.360;2022-08-21T01:02:56;12.90;;;6.70;;
6388;SDS011;3227;42.654;23.360;2022-08-21T01:05:24;11.95;;;6.32;;
6388;SDS011;3227;42.654;23.360;2022-08-21T01:07:52;11.85;;;6.55;;
6388;SDS011;3227;42.654;23.360;2022-08-21T01:10:22;13.48;;;7.97;;
6388;SDS011;3227;42.654;23.360;2022-08-21T01:12:51;14.80;;;7.13;;
6388;SDS011;3227;42.654;23.360;2022-08-21T01:15:20;12.63;;;7.07;;
6388;SDS011;3227;42.654;23.360;2022-08-21T01:17:49;16.42;;;7.93;;
6388;SDS011;3227;42.654;23.360;2022-08-21T01:20:17;14.98;;;8.38;;
6388;SDS011;3227;42.654;23.360;2022-08-21T01:22:45;16.23;;;8.75;;
6388;SDS011;3227;42.654;23.360;2022-08-21T01:25:13;16.80;;;10.02;;
6388;SDS011;3227;42.654;23.360;2022-08-21T01:27:41;16.27;;;10.27;;
6388;SDS011;3227;42.654;23.360;2022-08-21T01:30:10;17.77;;;10.55;;
6388;SDS011;3227;42.654;23.360;2022-08-21T01:32:39;17.13;;;10.00;;
6388;SDS011;3227;42.654;23.360;2022-08-21T01:35:07;19.00;;;10.88;;
6388;SDS011;3227;42.654;23.360;2022-08-21T01:37:36;21.42;;;11.48;;
6388;SDS011;3227;42.654;23.360;2022-08-21T01:40:05;21.33;;;11.85;;
6388;SDS011;3227;42.654;23.360;2022-08-21T01:42:33;19.00;;;11.18;;
6388;SDS011;3227;42.654;23.360;2022-08-21T01:44:59;17.92;;;11.73;;
6388;SDS011;3227;42.654;23.360;2022-08-21T01:47:26;22.17;;;12.93;;
6388;SDS011;3227;42.654;23.360;2022-08-21T01:49:53;20.90;;;11.18;;
6388;SDS011;3227;42.654;23.360;2022-08-21T01:52:20;19.30;;;11.48;;
6388;SDS011;3227;42.654;23.360;2022-08-21T01:54:47;19.33;;;11.15;;
6388;SDS011;3227;42.654;23.360;2022-08-21T01:57:15;20.73;;;12.52;;
6388;SDS011;3227;42.654;23.360;2022-08-21T01:59:42;20.02;;;11.40;;
6388;SDS011;3227;42.654;23.360;2022-08-21T02:02:09;17.77;;;12.05;;
6388;SDS011;3227;42.654;23.360;2022-08-21T02:04:36;19.38;;;10.73;;
6388;SDS011;3227;42.654;23.360;2022-08-21T02:07:03;20.80;;;12.43;;
6388;SDS011;3227;42.654;23.360;2022-08-21T02:09:30;21.92;;;11.35;;
6388;SDS011;3227;42.654;23.360;2022-08-21T02:11:57;20.63;;;11.88;;
6388;SDS011;3227;42.654;23.360;2022-08-21T02:14:25;21.67;;;13.48;;
6388;SDS011;3227;42.654;23.360;2022-08-21T02:16:52;17.88;;;11.50;;
6388;SDS011;3227;42.654;23.360;2022-08-21T02:19:19;18.48;;;12.30;;
6388;SDS011;3227;42.654;23.360;2022-08-21T02:21:46;18.77;;;11.05;;
6388;SDS011;3227;42.654;23.360;2022-08-21T02:24:13;21.80;;;11.73;;
6388;SDS011;3227;42.654;23.360;2022-08-21T02:26:39;25.20;;;11.88;;
6388;SDS011;3227;42.654;23.360;2022-08-21T02:29:06;20.02;;;12.27;;
6388;SDS011;3227;42.654;23.360;2022-08-21T02:31:34;20.77;;;12.68;;
6388;SDS011;3227;42.654;23.360;2022-08-21T02:34:01;18.50;;;12.13;;
6388;SDS011;3227;42.654;23.360;2022-08-21T02:36:28;20.30;;;13.50;;
6388;SDS011;3227;42.654;23.360;2022-08-21T02:38:55;17.63;;;11.60;;
6388;SDS011;3227;42.654;23.360;2022-08-21T02:41:22;16.20;;;10.90;;
6388;SDS011;3227;42.654;23.360;2022-08-21T02:43:49;16.63;;;10.95;;
6388;SDS011;3227;42.654;23.360;2022-08-21T02:46:17;24.13;;;13.07;;
6388;SDS011;3227;42.654;23.360;2022-08-21T02:48:46;24.02;;;12.05;;
6388;SDS011;3227;42.654;23.360;2022-08-21T02:51:14;18.52;;;11.10;;
6388;SDS011;3227;42.654;23.360;2022-08-21T02:53:42;19.15;;;11.80;;
6388;SDS011;3227;42.654;23.360;2022-08-21T02:56:11;19.77;;;10.93;;
6388;SDS011;3227;42.654;23.360;2022-08-21T02:58:41;22.13;;;11.48;;
6388;SDS011;3227;42.654;23.360;2022-08-21T03:01:11;21.27;;;11.23;;
6388;SDS011;3227;42.654;23.360;2022-08-21T03:03:39;21.77;;;11.55;;
6388;SDS011;3227;42.654;23.360;2022-08-21T03:06:09;17.88;;;10.57;;
6388;SDS011;3227;42.654;23.360;2022-08-21T03:08:38;17.23;;;10.23;;
6388;SDS011;3227;42.654;23.360;2022-08-21T03:11:05;18.98;;;9.95;;
6388;SDS011;3227;42.654;23.360;2022-08-21T03:13:32;16.15;;;8.57;;
6388;SDS011;3227;42.654;23.360;2022-08-21T03:15:59;15.60;;;8.95;;
6388;SDS011;3227;42.654;23.360;2022-08-21T03:18:26;14.70;;;7.25;;
6388;SDS011;3227;42.654;23.360;2022-08-21T03:20:53;14.13;;;7.43;;
6388;SDS011;3227;42.654;23.360;2022-08-21T03:23:21;14.10;;;6.95;;
6388;SDS011;3227;42.654;23.360;2022-08-21T03:25:54;16.15;;;7.50;;
6388;SDS011;3227;42.654;23.360;2022-08-21T03:28:20;10.43;;;6.55;;
6388;SDS011;3227;42.654;23.360;2022-08-21T03:30:48;12.40;;;6.75;;
6388;SDS011;3227;42.654;23.360;2022-08-21T03:33:17;13.27;;;6.65;;
6388;SDS011;3227;42.654;23.360;2022-08-21T03:35:45;16.77;;;6.82;;
6388;SDS011;3227;42.654;23.360;2022-08-21T03:38:15;15.00;;;6.85;;
6388;SDS011;3227;42.654;23.360;2022-08-21T03:40:43;13.30;;;7.38;;
6388;SDS011;3227;42.654;23.360;2022-08-21T03:43:10;12.90;;;6.75;;
6388;SDS011;3227;42.654;23.360;2022-08-21T03:45:37;14.02;;;5.57;;
6388;SDS011;3227;42.654;23.360;2022-08-21T03:48:05;14.98;;;5.78;;
6388;SDS011;3227;42.654;23.360;2022-08-21T03:50:35;14.15;;;5.10;;
6388;SDS011;3227;42.654;23.360;2022-08-21T03:53:05;10.75;;;5.70;;
6388;SDS011;3227;42.654;23.360;2022-08-21T03:55:32;14.82;;;5.07;;
6388;SDS011;3227;42.654;23.360;2022-08-21T03:58:00;16.17;;;5.13;;
6388;SDS011;3227;42.654;23.360;2022-08-21T04:00:27;11.45;;;4.78;;
6388;SDS011;3227;42.654;23.360;2022-08-21T04:02:54;11.52;;;5.00;;
6388;SDS011;3227;42.654;23.360;2022-08-21T04:05:22;11.90;;;5.47;;
6388;SDS011;3227;42.654;23.360;2022-08-21T04:07:54;12.07;;;6.35;;
6388;SDS011;3227;42.654;23.360;2022-08-21T04:10:21;11.07;;;6.50;;
6388;SDS011;3227;42.654;23.360;2022-08-21T04:12:49;18.17;;;7.85;;
6388;SDS011;3227;42.654;23.360;2022-08-21T04:15:18;15.95;;;7.43;;
6388;SDS011;3227;42.654;23.360;2022-08-21T04:17:46;14.90;;;7.32;;
6388;SDS011;3227;42.654;23.360;2022-08-21T04:20:13;15.88;;;8.30;;
6388;SDS011;3227;42.654;23.360;2022-08-21T04:22:40;15.30;;;6.93;;
6388;SDS011;3227;42.654;23.360;2022-08-21T04:25:07;17.67;;;7.50;;
6388;SDS011;3227;42.654;23.360;2022-08-21T04:27:34;12.13;;;7.22;;
6388;SDS011;3227;42.654;23.360;2022-08-21T04:30:01;18.48;;;8.70;;
6388;SDS011;3227;42.654;23.360;2022-08-21T04:32:30;14.68;;;7.63;;
6388;SDS011;3227;42.654;23.360;2022-08-21T04:34:58;14.50;;;8.07;;
6388;SDS011;3227;42.654;23.360;2022-08-21T04:37:26;15.35;;;7.70;;
6388;SDS011;3227;42.654;23.360;2022-08-21T04:39:53;15.27;;;8.18;;
6388;SDS011;3227;42.654;23.360;2022-08-21T04:42:21;13.38;;;8.32;;
6388;SDS011;3227;42.654;23.360;2022-08-21T04:44:48;14.88;;;7.57;;
6388;SDS011;3227;42.654;23.360;2022-08-21T04:47:15;14.15;;;8.57;;
6388;SDS011;3227;42.654;23.360;2022-08-21T04:49:44;13.65;;;7.72;;
6388;SDS011;3227;42.654;23.360;2022-08-21T04:52:11;18.10;;;8.18;;
6388;SDS011;3227;42.654;23.360;2022-08-21T04:54:42;14.27;;;7.47;;
6388;SDS011;3227;42.654;23.360;2022-08-21T04:57:11;11.05;;;7.00;;
6388;SDS011;3227;42.654;23.360;2022-08-21T04:59:43;15.63;;;7.03;;
6388;SDS011;3227;42.654;23.360;2022-08-21T05:02:13;13.38;;;7.03;;
6388;SDS011;3227;42.654;23.360;2022-08-21T05:04:42;9.85;;;6.15;;
6388;SDS011;3227;42.654;23.360;2022-08-21T05:07:15;9.88;;;5.75;;
6388;SDS011;3227;42.654;23.360;2022-08-21T05:09:45;13.18;;;5.47;;
6388;SDS011;3227;42.654;23.360;2022-08-21T05:12:12;14.55;;;5.68;;
6388;SDS011;3227;42.654;23.360;2022-08-21T05:14:39;13.60;;;5.22;;
6388;SDS011;3227;42.654;23.360;2022-08-21T05:17:07;11.57;;;4.30;;
6388;SDS011;3227;42.654;23.360;2022-08-21T05:19:34;11.27;;;4.30;;
6388;SDS011;3227;42.654;23.360;2022-08-21T05:22:02;9.25;;;3.85;;
6388;SDS011;3227;42.654;23.360;2022-08-21T05:24:29;11.85;;;3.72;;
6388;SDS011;3227;42.654;23.360;2022-08-21T05:26:56;9.85;;;3.80;;
6388;SDS011;3227;42.654;23.360;2022-08-21T05:29:23;13.63;;;3.72;;
6388;SDS011;3227;42.654;23.360;2022-08-21T05:31:51;8.77;;;3.90;;
6388;SDS011;3227;42.654;23.360;2022-08-21T05:34:19;10.45;;;4.35;;
6388;SDS011;3227;42.654;23.360;2022-08-21T05:36:47;12.88;;;5.05;;
6388;SDS011;3227;42.654;23.360;2022-08-21T05:39:15;15.40;;;5.25;;
6388;SDS011;3227;42.654;23.360;2022-08-21T05:41:42;6.28;;;3.70;;
6388;SDS011;3227;42.654;23.360;2022-08-21T05:44:09;16.75;;;4.40;;
6388;SDS011;3227;42.654;23.360;2022-08-21T05:46:38;9.48;;;3.80;;
6388;SDS011;3227;42.654;23.360;2022-08-21T05:49:05;8.60;;;3.70;;
6388;SDS011;3227;42.654;23.360;2022-08-21T05:51:32;10.73;;;4.70;;
6388;SDS011;3227;42.654;23.360;2022-08-21T05:53:59;9.82;;;5.50;;
6388;SDS011;3227;42.654;23.360;2022-08-21T05:56:27;9.90;;;5.70;;
6388;SDS011;3227;42.654;23.360;2022-08-21T05:58:54;14.90;;;6.60;;
6388;SDS011;3227;42.654;23.360;2022-08-21T06:01:21;13.23;;;7.00;;
6388;SDS011;3227;42.654;23.360;2022-08-21T06:03:48;12.25;;;7.03;;
6388;SDS011;3227;42.654;23.360;2022-08-21T06:06:15;12.88;;;6.60;;
6388;SDS011;3227;42.654;23.360;2022-08-21T06:08:42;13.98;;;6.95;;
6388;SDS011;3227;42.654;23.360;2022-08-21T06:11:09;16.75;;;8.00;;
6388;SDS011;3227;42.654;23.360;2022-08-21T06:13:37;16.58;;;7.80;;
6388;SDS011;3227;42.654;23.360;2022-08-21T06:16:07;11.30;;;8.02;;
6388;SDS011;3227;42.654;23.360;2022-08-21T06:18:35;11.13;;;7.65;;
6388;SDS011;3227;42.654;23.360;2022-08-21T06:21:03;14.63;;;8.50;;
6388;SDS011;3227;42.654;23.360;2022-08-21T06:23:30;13.32;;;8.60;;
6388;SDS011;3227;42.654;23.360;2022-08-21T06:25:58;14.65;;;8.48;;
6388;SDS011;3227;42.654;23.360;2022-08-21T06:28:25;13.50;;;8.45;;
6388;SDS011;3227;42.654;23.360;2022-08-21T06:30:53;16.85;;;8.60;;
6388;SDS011;3227;42.654;23.360;2022-08-21T06:33:20;15.13;;;8.57;;
6388;SDS011;3227;42.654;23.360;2022-08-21T06:35:46;16.55;;;8.20;;
6388;SDS011;3227;42.654;23.360;2022-08-21T06:38:13;11.23;;;7.60;;
6388;SDS011;3227;42.654;23.360;2022-08-21T06:40:40;14.85;;;7.65;;
6388;SDS011;3227;42.654;23.360;2022-08-21T06:43:08;14.82;;;7.63;;
6388;SDS011;3227;42.654;23.360;2022-08-21T06:45:37;14.13;;;8.77;;
6388;SDS011;3227;42.654;23.360;2022-08-21T06:48:05;15.80;;;7.30;;
6388;SDS011;3227;42.654;23.360;2022-08-21T06:50:33;14.80;;;7.50;;
6388;SDS011;3227;42.654;23.360;2022-08-21T06:53:01;12.85;;;7.00;;
6388;SDS011;3227;42.654;23.360;2022-08-21T06:55:29;12.75;;;7.60;;
6388;SDS011;3227;42.654;23.360;2022-08-21T06:57:56;11.00;;;6.20;;
6388;SDS011;3227;42.654;23.360;2022-08-21T07:00:23;10.73;;;5.75;;
6388;SDS011;3227;42.654;23.360;2022-08-21T07:02:51;13.02;;;6.15;;
6388;SDS011;3227;42.654;23.360;2022-08-21T07:05:19;13.30;;;6.30;;
6388;SDS011;3227;42.654;23.360;2022-08-21T07:07:46;10.57;;;5.78;;
6388;SDS011;3227;42.654;23.360;2022-08-21T07:10:13;12.18;;;6.35;;
6388;SDS011;3227;42.654;23.360;2022-08-21T07:12:41;11.70;;;5.60;;
6388;SDS011;3227;42.654;23.360;2022-08-21T07:15:08;13.65;;;6.68;;
6388;SDS011;3227;42.654;23.360;2022-08-21T07:17:36;16.08;;;6.65;;
6388;SDS011;3227;42.654;23.360;2022-08-21T07:20:03;12.40;;;6.70;;
6388;SDS011;3227;42.654;23.360;2022-08-21T07:22:32;12.55;;;5.50;;
6388;SDS011;3227;42.654;23.360;2022-08-21T07:25:01;10.27;;;5.65;;
6388;SDS011;3227;42.654;23.360;2022-08-21T07:27:28;13.43;;;5.63;;
6388;SDS011;3227;42.654;23.360;2022-08-21T07:29:55;12.35;;;5.47;;
6388;SDS011;3227;42.654;23.360;2022-08-21T07:32:23;12.57;;;5.68;;
6388;SDS011;3227;42.654;23.360;2022-08-21T07:34:51;11.52;;;4.88;;
6388;SDS011;3227;42.654;23.360;2022-08-21T07:37:18;15.48;;;7.50;;
6388;SDS011;3227;42.654;23.360;2022-08-21T07:39:46;15.57;;;6.80;;
6388;SDS011;3227;42.654;23.360;2022-08-21T07:42:14;12.18;;;5.38;;
6388;SDS011;3227;42.654;23.360;2022-08-21T07:44:40;13.52;;;6.00;;
6388;SDS011;3227;42.654;23.360;2022-08-21T07:47:07;10.25;;;5.07;;
6388;SDS011;3227;42.654;23.360;2022-08-21T07:49:34;11.40;;;5.32;;
6388;SDS011;3227;42.654;23.360;2022-08-21T07:52:01;10.50;;;5.50;;
6388;SDS011;3227;42.654;23.360;2022-08-21T07:54:28;12.52;;;4.90;;
6388;SDS011;3227;42.654;23.360;2022-08-21T07:56:57;11.00;;;5.10;;
6388;SDS011;3227;42.654;23.360;2022-08-21T07:59:23;12.55;;;5.45;;
6388;SDS011;3227;42.654;23.360;2022-08-21T08:01:50;10.52;;;6.10;;
6388;SDS011;3227;42.654;23.360;2022-08-21T08:04:17;12.07;;;7.32;;
6388;SDS011;3227;42.654;23.360;2022-08-21T08:06:44;17.27;;;7.05;;
6388;SDS011;3227;42.654;23.360;2022-08-21T08:09:11;11.23;;;5.47;;
6388;SDS011;3227;42.654;23.360;2022-08-21T08:11:38;12.15;;;5.30;;
6388;SDS011;3227;42.654;23.360;2022-08-21T08:14:10;12.95;;;6.07;;
6388;SDS011;3227;42.654;23.360;2022-08-21T08:16:37;15.02;;;6.15;;
6388;SDS011;3227;42.654;23.360;2022-08-21T08:19:04;14.02;;;5.00;;
6388;SDS011;3227;42.654;23.360;2022-08-21T08:21:31;13.98;;;7.78;;
6388;SDS011;3227;42.654;23.360;2022-08-21T08:23:59;11.63;;;6.55;;
6388;SDS011;3227;42.654;23.360;2022-08-21T08:26:26;15.73;;;8.50;;
6388;SDS011;3227;42.654;23.360;2022-08-21T08:28:53;12.68;;;8.13;;
6388;SDS011;3227;42.654;23.360;2022-08-21T08:31:21;15.95;;;7.80;;
6388;SDS011;3227;42.654;23.360;2022-08-21T08:33:48;13.88;;;7.50;;
6388;SDS011;3227;42.654;23.360;2022-08-21T08:36:16;14.20;;;8.23;;
6388;SDS011;3227;42.654;23.360;2022-08-21T08:38:44;14.60;;;7.65;;
6388;SDS011;3227;42.654;23.360;2022-08-21T08:41:11;13.05;;;7.88;;
6388;SDS011;3227;42.654;23.360;2022-08-21T08:43:40;17.05;;;8.77;;
6388;SDS011;3227;42.654;23.360;2022-08-21T08:46:12;17.33;;;8.40;;
6388;SDS011;3227;42.654;23.360;2022-08-21T08:48:46;15.38;;;7.82;;
6388;SDS011;3227;42.654;23.360;2022-08-21T08:51:18;14.27;;;7.38;;
6388;SDS011;3227;42.654;23.360;2022-08-21T08:53:51;16.88;;;8.02;;
6388;SDS011;3227;42.654;23.360;2022-08-21T08:56:23;15.02;;;8.35;;
6388;SDS011;3227;42.654;23.360;2022-08-21T08:58:56;14.27;;;7.88;;
6388;SDS011;3227;42.654;23.360;2022-08-21T09:01:28;18.45;;;7.50;;
6388;SDS011;3227;42.654;23.360;2022-08-21T09:03:56;15.32;;;7.65;;
6388;SDS011;3227;42.654;23.360;2022-08-21T09:06:34;13.63;;;6.13;;
6388;SDS011;3227;42.654;23.360;2022-08-21T09:09:19;16.23;;;7.18;;
6388;SDS011;3227;42.654;23.360;2022-08-21T09:11:56;16.23;;;6.85;;
6388;SDS011;3227;42.654;23.360;2022-08-21T09:14:28;18.30;;;5.75;;
6388;SDS011;3227;42.654;23.360;2022-08-21T09:17:11;12.77;;;6.15;;
6388;SDS011;3227;42.654;23.360;2022-08-21T09:19:51;13.07;;;6.00;;
6388;SDS011;3227;42.654;23.360;2022-08-21T09:22:29;15.07;;;7.20;;
6388;SDS011;3227;42.654;23.360;2022-08-21T09:25:03;16.73;;;8.10;;
6388;SDS011;3227;42.654;23.360;2022-08-21T09:27:38;11.85;;;6.82;;
6388;SDS011;3227;42.654;23.360;2022-08-21T09:30:05;14.77;;;7.35;;
6388;SDS011;3227;42.654;23.360;2022-08-21T09:32:35;14.63;;;7.57;;
6388;SDS011;3227;42.654;23.360;2022-08-21T09:35:06;13.80;;;7.13;;
6388;SDS011;3227;42.654;23.360;2022-08-21T09:37:35;17.17;;;6.20;;
6388;SDS011;3227;42.654;23.360;2022-08-21T09:40:19;22.52;;;6.60;;
6388;SDS011;3227;42.654;23.360;2022-08-21T09:43:00;15.95;;;5.70;;
6388;SDS011;3227;42.654;23.360;2022-08-21T09:45:29;14.40;;;5.75;;
6388;SDS011;3227;42.654;23.360;2022-08-21T09:48:07;19.17;;;6.20;;
6388;SDS011;3227;42.654;23.360;2022-08-21T09:50:37;12.50;;;6.47;;
6388;SDS011;3227;42.654;23.360;2022-08-21T09:53:04;14.18;;;6.10;;
6388;SDS011;3227;42.654;23.360;2022-08-21T09:55:33;12.45;;;6.82;;
6388;SDS011;3227;42.654;23.360;2022-08-21T09:58:29;12.20;;;6.18;;
6388;SDS011;3227;42.654;23.360;2022-08-21T10:00:58;14.98;;;6.70;;
6388;SDS011;3227;42.654;23.360;2022-08-21T10:03:26;12.40;;;6.18;;
6388;SDS011;3227;42.654;23.360;2022-08-21T10:05:57;11.95;;;6.10;;
6388;SDS011;3227;42.654;23.360;2022-08-21T10:08:28;15.80;;;6.47;;
6388;SDS011;3227;42.654;23.360;2022-08-21T10:10:56;13.25;;;5.85;;
6388;SDS011;3227;42.654;23.360;2022-08-21T10:13:39;17.27;;;6.80;;
6388;SDS011;3227;42.654;23.360;2022-08-21T10:16:21;11.57;;;6.07;;
6388;SDS011;3227;42.654;23.360;2022-08-21T10:19:00;10.82;;;6.32;;
6388;SDS011;3227;42.654;23.360;2022-08-21T10:21:34;13.85;;;6.38;;
6388;SDS011;3227;42.654;23.360;2022-08-21T10:24:09;17.83;;;6.60;;
6388;SDS011;3227;42.654;23.360;2022-08-21T10:26:46;15.20;;;7.43;;
6388;SDS011;3227;42.654;23.360;2022-08-21T10:29:28;14.70;;;7.00;;
6388;SDS011;3227;42.654;23.360;2022-08-21T10:32:13;18.30;;;6.60;;
6388;SDS011;3227;42.654;23.360;2022-08-21T10:34:51;15.15;;;6.68;;
6388;SDS011;3227;42.654;23.360;2022-08-21T10:37:28;10.73;;;5.93;;
6388;SDS011;3227;42.654;23.360;2022-08-21T10:40:07;10.82;;;6.20;;
6388;SDS011;3227;42.654;23.360;2022-08-21T10:42:45;12.88;;;6.60;;
6388;SDS011;3227;42.654;23.360;2022-08-21T10:45:26;13.63;;;6.43;;
6388;SDS011;3227;42.654;23.360;2022-08-21T10:48:08;14.27;;;6.80;;
6388;SDS011;3227;42.654;23.360;2022-08-21T10:50:47;10.75;;;6.25;;
6388;SDS011;3227;42.654;23.360;2022-08-21T10:53:35;13.70;;;6.45;;
6388;SDS011;3227;42.654;23.360;2022-08-21T10:56:14;14.82;;;5.72;;
6388;SDS011;3227;42.654;23.360;2022-08-21T10:58:45;11.05;;;6.32;;
6388;SDS011;3227;42.654;23.360;2022-08-21T11:01:24;12.82;;;6.30;;
6388;SDS011;3227;42.654;23.360;2022-08-21T11:04:00;14.02;;;6.63;;
6388;SDS011;3227;42.654;23.360;2022-08-21T11:06:36;14.57;;;6.35;;
6388;SDS011;3227;42.654;23.360;2022-08-21T11:09:12;14.95;;;6.40;;
6388;SDS011;3227;42.654;23.360;2022-08-21T11:11:41;12.52;;;5.85;;
6388;SDS011;3227;42.654;23.360;2022-08-21T11:14:15;12.18;;;5.55;;
6388;SDS011;3227;42.654;23.360;2022-08-21T11:16:48;12.18;;;5.68;;
6388;SDS011;3227;42.654;23.360;2022-08-21T11:19:25;10.52;;;5.90;;
6388;SDS011;3227;42.654;23.360;2022-08-21T11:21:58;11.43;;;5.43;;
6388;SDS011;3227;42.654;23.360;2022-08-21T11:24:38;13.38;;;6.00;;
6388;SDS011;3227;42.654;23.360;2022-08-21T11:27:16;10.00;;;5.55;;
6388;SDS011;3227;42.654;23.360;2022-08-21T11:29:48;14.77;;;5.43;;
6388;SDS011;3227;42.654;23.360;2022-08-21T11:32:23;13.18;;;5.40;;
6388;SDS011;3227;42.654;23.360;2022-08-21T11:35:11;11.88;;;5.30;;
6388;SDS011;3227;42.654;23.360;2022-08-21T11:38:03;11.45;;;5.05;;
6388;SDS011;3227;42.654;23.360;2022-08-21T11:40:46;12.05;;;5.47;;
6388;SDS011;3227;42.654;23.360;2022-08-21T11:43:30;11.20;;;5.63;;
6388;SDS011;3227;42.654;23.360;2022-08-21T11:46:06;14.05;;;5.90;;
6388;SDS011;3227;42.654;23.360;2022-08-21T11:48:42;9.38;;;5.18;;
6388;SDS011;3227;42.654;23.360;2022-08-21T11:51:15;11.85;;;5.43;;
6388;SDS011;3227;42.654;23.360;2022-08-21T11:53:48;8.88;;;4.75;;
6388;SDS011;3227;42.654;23.360;2022-08-21T11:56:25;14.32;;;5.50;;
6388;SDS011;3227;42.654;23.360;2022-08-21T11:58:58;11.88;;;5.82;;
6388;SDS011;3227;42.654;23.360;2022-08-21T12:01:30;11.30;;;5.60;;
6388;SDS011;3227;42.654;23.360;2022-08-21T12:04:02;11.40;;;5.15;;
6388;SDS011;3227;42.654;23.360;2022-08-21T12:06:33;11.40;;;5.18;;
6388;SDS011;3227;42.654;23.360;2022-08-21T12:09:05;12.48;;;5.32;;
6388;SDS011;3227;42.654;23.360;2022-08-21T12:11:43;14.18;;;6.22;;
6388;SDS011;3227;42.654;23.360;2022-08-21T12:14:14;9.38;;;5.78;;
6388;SDS011;3227;42.654;23.360;2022-08-21T12:16:44;10.32;;;5.50;;
6388;SDS011;3227;42.654;23.360;2022-08-21T12:19:12;10.82;;;5.10;;
6388;SDS011;3227;42.654;23.360;2022-08-21T12:21:57;12.82;;;5.70;;
6388;SDS011;3227;42.654;23.360;2022-08-21T12:24:42;13.25;;;6.03;;
6388;SDS011;3227;42.654;23.360;2022-08-21T12:27:19;9.38;;;5.28;;
6388;SDS011;3227;42.654;23.360;2022-08-21T12:29:51;10.88;;;5.35;;
6388;SDS011;3227;42.654;23.360;2022-08-21T12:32:26;9.70;;;5.40;;
6388;SDS011;3227;42.654;23.360;2022-08-21T12:34:55;10.88;;;5.50;;
6388;SDS011;3227;42.654;23.360;2022-08-21T12:37:29;11.55;;;5.82;;
6388;SDS011;3227;42.654;23.360;2022-08-21T12:40:10;11.55;;;5.10;;
6388;SDS011;3227;42.654;23.360;2022-08-21T12:42:46;13.77;;;5.65;;
6388;SDS011;3227;42.654;23.360;2022-08-21T12:45:19;12.93;;;6.18;;
6388;SDS011;3227;42.654;23.360;2022-08-21T12:48:05;9.43;;;5.63;;
6388;SDS011;3227;42.654;23.360;2022-08-21T12:50:37;10.85;;;5.85;;
6388;SDS011;3227;42.654;23.360;2022-08-21T12:53:09;13.05;;;5.82;;
6388;SDS011;3227;42.654;23.360;2022-08-21T12:55:40;12.43;;;5.68;;
6388;SDS011;3227;42.654;23.360;2022-08-21T12:58:17;9.48;;;4.95;;
6388;SDS011;3227;42.654;23.360;2022-08-21T13:00:47;10.23;;;5.32;;
6388;SDS011;3227;42.654;23.360;2022-08-21T13:03:16;10.27;;;5.57;;
6388;SDS011;3227;42.654;23.360;2022-08-21T13:05:43;12.15;;;5.15;;
6388;SDS011;3227;42.654;23.360;2022-08-21T13:08:11;9.60;;;5.07;;
6388;SDS011;3227;42.654;23.360;2022-08-21T13:10:40;11.13;;;5.88;;
6388;SDS011;3227;42.654;23.360;2022-08-21T13:13:08;9.45;;;5.35;;
6388;SDS011;3227;42.654;23.360;2022-08-21T13:15:42;11.40;;;5.47;;
6388;SDS011;3227;42.654;23.360;2022-08-21T13:18:19;9.52;;;5.15;;
6388;SDS011;3227;42.654;23.360;2022-08-21T13:20:47;11.55;;;5.38;;
6388;SDS011;3227;42.654;23.360;2022-08-21T13:23:18;10.82;;;5.22;;
6388;SDS011;3227;42.654;23.360;2022-08-21T13:25:49;12.05;;;5.25;;
6388;SDS011;3227;42.654;23.360;2022-08-21T13:28:15;8.82;;;5.28;;
6388;SDS011;3227;42.654;23.360;2022-08-21T13:30:44;13.02;;;5.70;;
6388;SDS011;3227;42.654;23.360;2022-08-21T13:33:24;9.95;;;5.30;;
6388;SDS011;3227;42.654;23.360;2022-08-21T13:35:58;14.88;;;6.20;;
6388;SDS011;3227;42.654;23.360;2022-08-21T13:38:30;9.85;;;5.45;;
6388;SDS011;3227;42.654;23.360;2022-08-21T13:41:01;13.38;;;6.32;;
6388;SDS011;3227;42.654;23.360;2022-08-21T13:43:31;13.25;;;5.85;;
6388;SDS011;3227;42.654;23.360;2022-08-21T13:46:06;13.27;;;6.10;;
6388;SDS011;3227;42.654;23.360;2022-08-21T13:48:36;10.55;;;5.63;;
6388;SDS011;3227;42.654;23.360;2022-08-21T13:51:04;10.75;;;6.05;;
6388;SDS011;3227;42.654;23.360;2022-08-21T13:53:33;11.73;;;5.80;;
6388;SDS011;3227;42.654;23.360;2022-08-21T13:56:01;12.80;;;5.97;;
6388;SDS011;3227;42.654;23.360;2022-08-21T13:58:30;12.90;;;6.10;;
6388;SDS011;3227;42.654;23.360;2022-08-21T14:00:59;14.15;;;5.80;;
6388;SDS011;3227;42.654;23.360;2022-08-21T14:03:31;12.50;;;5.70;;
6388;SDS011;3227;42.654;23.360;2022-08-21T14:06:00;13.00;;;6.00;;
6388;SDS011;3227;42.654;23.360;2022-08-21T14:08:29;12.70;;;5.93;;
6388;SDS011;3227;42.654;23.360;2022-08-21T14:10:59;11.25;;;6.40;;
6388;SDS011;3227;42.654;23.360;2022-08-21T14:13:33;12.60;;;6.07;;
6388;SDS011;3227;42.654;23.360;2022-08-21T14:16:10;11.52;;;5.88;;
6388;SDS011;3227;42.654;23.360;2022-08-21T14:21:38;11.85;;;5.88;;
6388;SDS011;3227;42.654;23.360;2022-08-21T14:24:09;12.65;;;6.30;;
6388;SDS011;3227;42.654;23.360;2022-08-21T14:26:42;15.63;;;6.75;;
6388;SDS011;3227;42.654;23.360;2022-08-21T14:29:12;12.45;;;6.38;;
6388;SDS011;3227;42.654;23.360;2022-08-21T14:31:41;13.38;;;5.93;;
6388;SDS011;3227;42.654;23.360;2022-08-21T14:34:11;13.02;;;6.43;;
6388;SDS011;3227;42.654;23.360;2022-08-21T14:36:41;13.18;;;6.00;;
6388;SDS011;3227;42.654;23.360;2022-08-21T14:39:08;11.80;;;6.45;;
6388;SDS011;3227;42.654;23.360;2022-08-21T14:41:36;9.80;;;5.72;;
6388;SDS011;3227;42.654;23.360;2022-08-21T14:44:03;15.00;;;6.00;;
6388;SDS011;3227;42.654;23.360;2022-08-21T14:46:31;17.40;;;6.28;;
6388;SDS011;3227;42.654;23.360;2022-08-21T14:48:59;9.93;;;5.68;;
6388;SDS011;3227;42.654;23.360;2022-08-21T14:51:27;10.30;;;5.40;;
6388;SDS011;3227;42.654;23.360;2022-08-21T14:53:54;13.48;;;6.03;;
6388;SDS011;3227;42.654;23.360;2022-08-21T14:56:21;11.30;;;5.80;;
6388;SDS011;3227;42.654;23.360;2022-08-21T14:58:50;10.48;;;6.07;;
6388;SDS011;3227;42.654;23.360;2022-08-21T15:01:18;12.77;;;5.85;;
6388;SDS011;3227;42.654;23.360;2022-08-21T15:03:47;13.07;;;5.85;;
6388;SDS011;3227;42.654;23.360;2022-08-21T15:06:15;10.60;;;5.97;;
6388;SDS011;3227;42.654;23.360;2022-08-21T15:08:43;15.02;;;5.90;;
6388;SDS011;3227;42.654;23.360;2022-08-21T15:11:11;13.75;;;5.72;;